No particular awareness of the weather is required.    There are no Weather-warnings


Meteo18 Weather Cam more information Meteo18 Weather Cam


Thunder radar more information blitzortung!


Rain radar more information rain snow radar


Visit our other weather sites:

Template documentation
and downloads

And another site



Weather Underground History page Text

Daily Summary for February 10, 2017 Units:  English    Metric   Both
« Previous Day
Next Day »
Daily Weekly Monthly Yearly Custom
  High: Low: Average:
Temperature: TemperatureC °F -0.8 °F 1.7 °F
Dew Point: DewpointC °F -2.2 °F -0.1 °F
Humidity: Humidity % 81 % 88 %
Wind Speed: WindSpeedKMH mph 0.0 mph 4.1 mph
Wind Gust: WindSpeedGustKMH mph - -
Wind:- - South
Pressure: PressurehPa in 1016.8 in -
Precipitation: 0.0 in    
Historical Graphs
 
 
Tabular Data for February 10, 2017
Time Temperature Dew Point Pressure Wind Wind Speed Wind Gust Humidity Rainfall Rate (Hourly)
TemperatureC °F DewpointC °F PressurehPa in Calm     Humidity % HourlyPrecipMM in
00:07 0.3 °F -1.3 °F 1018.8 in Calm   6.4 mph 89 % 0.0 in
00:12 0.2 °F -1.4 °F 1018.8 in Calm   1.6 mph 89 % 0.0 in
00:17 0.2 °F -1.4 °F 1018.8 in Calm   1.6 mph 89 % 0.0 in
00:22 0.2 °F -1.4 °F 1018.8 in Calm   1.6 mph 89 % 0.0 in
00:27 0.3 °F -1.3 °F 1018.8 in NNW 1.6 mph 3.2 mph 89 % 0.0 in
00:32 0.3 °F -1.3 °F 1018.8 in NNW 1.6 mph 3.2 mph 89 % 0.0 in
00:42 0.4 °F -1.4 °F 1018.8 in NNW 1.6 mph 6.4 mph 88 % 0.0 in
00:57 0.6 °F -1.2 °F 1018.8 in NNW 6.4 mph 8.0 mph 88 % 0.0 in
01:02 0.6 °F -1.3 °F 1018.8 in North 3.2 mph 8.0 mph 87 % 0.0 in
01:17 0.6 °F -1.3 °F 1018.8 in North 4.8 mph 8.0 mph 87 % 0.0 in
01:27 0.6 °F -1.2 °F 1018.8 in North 1.6 mph 8.0 mph 88 % 0.0 in
01:32 0.6 °F -1.2 °F 1018.8 in North 3.2 mph 8.0 mph 88 % 0.0 in
01:37 0.6 °F -1.3 °F 1018.5 in North 1.6 mph 6.4 mph 87 % 0.0 in
02:02 0.6 °F -1.3 °F 1018.5 in Calm   8.0 mph 87 % 0.0 in
02:07 0.5 °F -1.3 °F 1018.5 in NE 4.8 mph 8.0 mph 88 % 0.0 in
02:22 0.4 °F -1.5 °F 1018.2 in NE 1.6 mph 8.0 mph 87 % 0.0 in
02:27 0.4 °F -1.5 °F 1018.2 in NNW 4.8 mph 8.0 mph 87 % 0.0 in
02:37 0.4 °F -1.5 °F 1018.2 in NNE 4.8 mph 8.0 mph 87 % 0.0 in
02:47 0.3 °F -1.5 °F 1018.2 in NNE 4.8 mph 9.7 mph 88 % 0.0 in
02:52 0.3 °F -1.5 °F 1018.2 in NE 1.6 mph 11.3 mph 88 % 0.0 in
02:57 0.3 °F -1.5 °F 1018.2 in NE 11.3 mph 11.3 mph 88 % 0.0 in
03:02 0.3 °F -1.5 °F 1018.2 in NE 3.2 mph 12.9 mph 88 % 0.0 in
03:07 0.2 °F -1.6 °F 1018.2 in North 4.8 mph 12.9 mph 88 % 0.0 in
03:12 0.2 °F -1.6 °F 1017.8 in North 6.4 mph 12.9 mph 88 % 0.0 in
03:17 0.2 °F -1.6 °F 1017.8 in NNE 4.8 mph 11.3 mph 88 % 0.0 in
03:22 0.1 °F -1.7 °F 1017.8 in North 3.2 mph 9.7 mph 88 % 0.0 in
03:27 0.1 °F -1.5 °F 1017.8 in North 1.6 mph 9.7 mph 89 % 0.0 in
03:32 0.0 °F -1.6 °F 1017.8 in NNW 6.4 mph 9.7 mph 89 % 0.0 in
03:37 0.0 °F -1.6 °F 1017.8 in North 3.2 mph 12.9 mph 89 % 0.0 in
03:42 -0.1 °F -1.7 °F 1017.8 in North 1.6 mph 12.9 mph 89 % 0.0 in
03:47 -0.2 °F -1.8 °F 1017.5 in Calm   12.9 mph 89 % 0.0 in
03:52 -0.2 °F -1.6 °F 1017.8 in North 3.2 mph 8.0 mph 90 % 0.0 in
03:57 -0.3 °F -1.7 °F 1017.5 in North 3.2 mph 8.0 mph 90 % 0.0 in
04:02 -0.3 °F -1.7 °F 1017.5 in North 3.2 mph 8.0 mph 90 % 0.0 in
04:07 -0.4 °F -1.8 °F 1017.5 in NNE 1.6 mph 8.0 mph 90 % 0.0 in
04:12 -0.5 °F -1.9 °F 1017.5 in Calm   8.0 mph 90 % 0.0 in
04:17 -0.6 °F -2.0 °F 1017.5 in North 3.2 mph 6.4 mph 90 % 0.0 in
04:22 -0.6 °F -2.0 °F 1017.5 in North 4.8 mph 8.0 mph 90 % 0.0 in
04:27 -0.6 °F -2.0 °F 1017.5 in North 1.6 mph 8.0 mph 90 % 0.0 in
04:32 -0.6 °F -2.0 °F 1017.5 in North 1.6 mph 8.0 mph 90 % 0.0 in
04:37 -0.7 °F -2.1 °F 1017.2 in NNE 3.2 mph 8.0 mph 90 % 0.0 in
04:42 -0.7 °F -2.1 °F 1017.2 in Calm   6.4 mph 90 % 0.0 in
04:47 -0.8 °F -2.2 °F 1017.5 in NNW 1.6 mph 6.4 mph 90 % 0.0 in
04:52 -0.8 °F -2.1 °F 1017.5 in Calm   6.4 mph 91 % 0.0 in
04:57 -0.8 °F -2.1 °F 1017.5 in Calm   11.3 mph 91 % 0.0 in
05:02 -0.7 °F -2.1 °F 1017.5 in Calm   11.3 mph 90 % 0.0 in
05:07 -0.8 °F -2.2 °F 1017.5 in North 1.6 mph 11.3 mph 90 % 0.0 in
05:12 -0.8 °F -2.2 °F 1017.5 in NE 3.2 mph 11.3 mph 90 % 0.0 in
05:17 -0.7 °F -2.0 °F 1017.5 in NNE 1.6 mph 6.4 mph 91 % 0.0 in
05:22 -0.7 °F -2.0 °F 1017.5 in NNW 1.6 mph 4.8 mph 91 % 0.0 in
05:27 -0.6 °F -2.0 °F 1017.5 in NNE 1.6 mph 3.2 mph 90 % 0.0 in
05:32 -0.6 °F -2.0 °F 1017.5 in Calm   3.2 mph 90 % 0.0 in
05:37 -0.6 °F -2.0 °F 1017.5 in NNW 1.6 mph 4.8 mph 90 % 0.0 in
05:42 -0.4 °F -1.8 °F 1017.5 in North 1.6 mph 4.8 mph 90 % 0.0 in
05:47 -0.4 °F -1.8 °F 1017.5 in Calm   6.4 mph 90 % 0.0 in
05:52 -0.3 °F -1.7 °F 1017.5 in Calm   6.4 mph 90 % 0.0 in
05:57 -0.3 °F -1.7 °F 1017.5 in NNW 1.6 mph 4.8 mph 90 % 0.0 in
06:02 -0.2 °F -1.6 °F 1017.5 in NNE 1.6 mph 4.8 mph 90 % 0.0 in
06:07 -0.2 °F -1.8 °F 1017.5 in NNW 1.6 mph 4.8 mph 89 % 0.0 in
06:12 -0.2 °F -1.8 °F 1017.5 in North 3.2 mph 4.8 mph 89 % 0.0 in
06:17 -0.2 °F -1.8 °F 1017.5 in Calm   4.8 mph 89 % 0.0 in
06:22 -0.1 °F -1.7 °F 1017.5 in NE 1.6 mph 4.8 mph 89 % 0.0 in
06:27 -0.1 °F -1.7 °F 1017.5 in Calm   4.8 mph 89 % 0.0 in
06:32 -0.1 °F -1.7 °F 1017.5 in NE 3.2 mph 8.0 mph 89 % 0.0 in
06:37 -0.1 °F -1.7 °F 1017.5 in NNE 1.6 mph 8.0 mph 89 % 0.0 in
06:42 -0.1 °F -1.7 °F 1017.2 in NNW 3.2 mph 8.0 mph 89 % 0.0 in
06:47 -0.1 °F -1.7 °F 1017.2 in NE 6.4 mph 8.0 mph 89 % 0.0 in
06:52 -0.1 °F -1.7 °F 1017.2 in NNE 3.2 mph 8.0 mph 89 % 0.0 in
06:57 -0.1 °F -1.7 °F 1017.2 in North 1.6 mph 9.7 mph 89 % 0.0 in
07:02 -0.1 °F -1.7 °F 1017.2 in NE 1.6 mph 9.7 mph 89 % 0.0 in
07:12 -0.2 °F -1.8 °F 1017.2 in Calm   11.3 mph 89 % 0.0 in
07:17 -0.2 °F -1.8 °F 1017.2 in North 3.2 mph 12.9 mph 89 % 0.0 in
07:22 -0.2 °F -1.8 °F 1017.2 in NW 1.6 mph 12.9 mph 89 % 0.0 in
07:27 -0.2 °F -1.8 °F 1017.2 in NE 4.8 mph 11.3 mph 89 % 0.0 in
07:32 -0.2 °F -1.8 °F 1017.2 in NNW 6.4 mph 11.3 mph 89 % 0.0 in
07:37 -0.2 °F -1.8 °F 1017.2 in NNW 3.2 mph 11.3 mph 89 % 0.0 in
07:42 -0.2 °F -1.8 °F 1017.2 in NE 3.2 mph 11.3 mph 89 % 0.0 in
07:47 -0.2 °F -1.8 °F 1017.2 in NNW 3.2 mph 8.0 mph 89 % 0.0 in
07:57 -0.2 °F -1.8 °F 1017.2 in NNE 4.8 mph 12.9 mph 89 % 0.0 in
08:02 -0.2 °F -1.8 °F 1017.5 in NNE 1.6 mph 12.9 mph 89 % 0.0 in
08:07 -0.2 °F -1.8 °F 1017.5 in North 6.4 mph 9.7 mph 89 % 0.0 in
08:12 -0.1 °F -1.7 °F 1017.5 in NE 4.8 mph 9.7 mph 89 % 0.0 in
08:17 -0.1 °F -1.7 °F 1017.5 in NE 8.0 mph 9.7 mph 89 % 0.0 in
08:22 -0.1 °F -1.7 °F 1017.5 in NNE 4.8 mph 9.7 mph 89 % 0.0 in
08:27 -0.1 °F -1.7 °F 1017.5 in NE 6.4 mph 12.9 mph 89 % 0.0 in
08:32 -0.2 °F -1.8 °F 1017.5 in NNE 9.7 mph 12.9 mph 89 % 0.0 in
08:37 -0.2 °F -1.8 °F 1017.5 in NE 6.4 mph 12.9 mph 89 % 0.0 in
08:42 -0.2 °F -1.8 °F 1017.8 in Calm   12.9 mph 89 % 0.0 in
08:47 -0.1 °F -1.5 °F 1017.8 in North 1.6 mph 12.9 mph 90 % 0.0 in
08:57 -0.1 °F -1.5 °F 1017.8 in NNE 3.2 mph 11.3 mph 90 % 0.0 in
09:02 -0.1 °F -1.5 °F 1017.8 in NNW 4.8 mph 11.3 mph 90 % 0.0 in
09:07 -0.1 °F -1.5 °F 1017.5 in NE 6.4 mph 11.3 mph 90 % 0.0 in
09:12 -0.1 °F -1.5 °F 1017.8 in NNE 11.3 mph 11.3 mph 90 % 0.0 in
09:17 -0.1 °F -1.5 °F 1017.8 in NNE 1.6 mph 16.1 mph 90 % 0.0 in
09:27 0.0 °F -1.4 °F 1017.5 in NNW 9.7 mph 12.9 mph 90 % 0.0 in
09:32 0.0 °F -1.4 °F 1017.5 in NNE 3.2 mph 12.9 mph 90 % 0.0 in
09:37 0.1 °F -1.3 °F 1017.5 in NW 6.4 mph 12.9 mph 90 % 0.0 in
09:42 0.1 °F -1.3 °F 1017.8 in NE 3.2 mph 12.9 mph 90 % 0.0 in
09:47 0.2 °F -1.2 °F 1017.8 in NNE 1.6 mph 11.3 mph 90 % 0.0 in
09:52 0.2 °F -1.2 °F 1017.8 in NNE 3.2 mph 11.3 mph 90 % 0.0 in
09:57 0.2 °F -1.2 °F 1017.8 in NE 8.0 mph 11.3 mph 90 % 0.0 in
10:02 0.3 °F -1.1 °F 1017.8 in NNE 6.4 mph 11.3 mph 90 % 0.0 in
10:07 0.4 °F -1.0 °F 1017.8 in NNE 3.2 mph 11.3 mph 90 % 0.0 in
10:12 0.4 °F -1.0 °F 1017.8 in NNW 1.6 mph 11.3 mph 90 % 0.0 in
10:17 0.6 °F -0.9 °F 1017.8 in North 1.6 mph 11.3 mph 90 % 0.0 in
10:22 0.7 °F -0.9 °F 1017.8 in Calm   6.4 mph 89 % 0.0 in
10:27 0.7 °F -0.9 °F 1017.8 in Calm   6.4 mph 89 % 0.0 in
10:32 0.8 °F -0.8 °F 1017.8 in North 1.6 mph 3.2 mph 89 % 0.0 in
10:37 0.8 °F -0.8 °F 1017.8 in Calm   3.2 mph 89 % 0.0 in
10:42 0.9 °F -0.7 °F 1017.8 in NNE 3.2 mph 3.2 mph 89 % 0.0 in
10:47 1.0 °F -0.8 °F 1017.8 in Calm   4.8 mph 88 % 0.0 in
10:52 1.2 °F -0.4 °F 1017.8 in NNW 1.6 mph 4.8 mph 89 % 0.0 in
10:57 1.3 °F -0.5 °F 1017.8 in North 1.6 mph 4.8 mph 88 % 0.0 in
11:02 1.5 °F -0.3 °F 1017.8 in North 3.2 mph 6.4 mph 88 % 0.0 in
11:07 1.5 °F -0.4 °F 1017.8 in NNW 3.2 mph 6.4 mph 87 % 0.0 in
11:12 1.6 °F -0.2 °F 1017.8 in NNW 3.2 mph 6.4 mph 88 % 0.0 in
11:17 1.7 °F -0.1 °F 1017.8 in North 1.6 mph 8.0 mph 88 % 0.0 in
11:22 1.9 °F 0.1 °F 1017.8 in North 1.6 mph 8.0 mph 88 % 0.0 in
11:27 2.1 °F 0.3 °F 1017.8 in Calm   8.0 mph 88 % 0.0 in
11:32 2.3 °F 0.4 °F 1017.8 in NNE 1.6 mph 8.0 mph 87 % 0.0 in
11:42 2.7 °F 0.6 °F 1017.5 in NE 4.8 mph 8.0 mph 86 % 0.0 in
11:47 2.9 °F 0.8 °F 1017.5 in North 4.8 mph 8.0 mph 86 % 0.0 in
11:52 3.3 °F 1.2 °F 1017.5 in North 6.4 mph 9.7 mph 86 % 0.0 in
12:02 3.4 °F 1.1 °F 1017.5 in East 1.6 mph 9.7 mph 85 % 0.0 in
12:07 3.6 °F 1.3 °F 1017.5 in NNW 1.6 mph 9.7 mph 85 % 0.0 in
12:12 3.6 °F 1.2 °F 1017.5 in ENE 4.8 mph 9.7 mph 84 % 0.0 in
12:17 3.6 °F 1.0 °F 1017.5 in Calm   11.3 mph 83 % 0.0 in
12:22 3.7 °F 1.4 °F 1017.5 in NNE 8.0 mph 11.3 mph 85 % 0.0 in
12:27 3.6 °F 1.0 °F 1017.5 in North 8.0 mph 11.3 mph 83 % 0.0 in
12:32 3.6 °F 1.2 °F 1017.5 in Calm   11.3 mph 84 % 0.0 in
12:37 3.7 °F 1.2 °F 1017.5 in NNE 8.0 mph 12.9 mph 84 % 0.0 in
12:42 3.7 °F 1.2 °F 1017.5 in NE 6.4 mph 11.3 mph 84 % 0.0 in
12:47 3.7 °F 1.2 °F 1017.2 in Calm   11.3 mph 84 % 0.0 in
12:52 3.9 °F 1.3 °F 1017.2 in NNW 1.6 mph 11.3 mph 83 % 0.0 in
12:57 4.2 °F 1.6 °F 1017.5 in North 1.6 mph 8.0 mph 83 % 0.0 in
13:02 4.2 °F 1.4 °F 1017.5 in Calm   9.7 mph 82 % 0.0 in
13:07 4.2 °F 1.7 °F 1017.5 in NW 3.2 mph 9.7 mph 84 % 0.0 in
13:12 4.3 °F 1.5 °F 1017.5 in North 3.2 mph 9.7 mph 82 % 0.0 in
13:17 4.2 °F 1.4 °F 1017.5 in NNW 6.4 mph 6.4 mph 82 % 0.0 in
13:22 4.3 °F 1.7 °F 1017.5 in WNW 3.2 mph 6.4 mph 83 % 0.0 in
13:27 4.4 °F 1.6 °F 1017.5 in NW 4.8 mph 6.4 mph 82 % 0.0 in
13:37 4.4 °F 1.6 °F 1017.2 in NNE 4.8 mph 9.7 mph 82 % 0.0 in
13:42 4.4 °F 1.6 °F 1017.2 in NNW 3.2 mph 8.0 mph 82 % 0.0 in
13:47 4.4 °F 1.4 °F 1017.2 in Calm   8.0 mph 81 % 0.0 in
13:52 4.4 °F 1.6 °F 1017.2 in NE 12.9 mph 12.9 mph 82 % 0.0 in
13:57 4.3 °F 1.7 °F 1017.2 in NNW 9.7 mph 16.1 mph 83 % 0.0 in
14:02 4.3 °F 1.5 °F 1017.2 in NNW 9.7 mph 16.1 mph 82 % 0.0 in
14:07 4.4 °F 1.8 °F 1016.8 in NW 3.2 mph 16.1 mph 83 % 0.0 in
14:17 4.6 °F 1.8 °F 1016.8 in ENE 1.6 mph 16.1 mph 82 % 0.0 in
14:22 4.6 °F 1.6 °F 1016.8 in NE 8.0 mph 16.1 mph 81 % 0.0 in
14:27 4.6 °F 1.8 °F 1016.8 in NE 9.7 mph 16.1 mph 82 % 0.0 in
14:32 4.6 °F 1.8 °F 1016.8 in NNE 9.7 mph 16.1 mph 82 % 0.0 in
14:37 4.6 °F 1.8 °F 1016.8 in North 3.2 mph 16.1 mph 82 % 0.0 in
14:42 4.7 °F 1.9 °F 1016.8 in ENE 1.6 mph 14.5 mph 82 % 0.0 in
14:47 4.6 °F 1.6 °F 1016.8 in NNE 9.7 mph 14.5 mph 81 % 0.0 in
14:52 4.5 °F 1.7 °F 1016.8 in NNW 3.2 mph 11.3 mph 82 % 0.0 in
14:57 4.6 °F 1.8 °F 1016.8 in North 4.8 mph 14.5 mph 82 % 0.0 in
15:02 4.6 °F 2.0 °F 1016.8 in NNE 11.3 mph 14.5 mph 83 % 0.0 in
15:07 4.6 °F 1.6 °F 1016.8 in North 6.4 mph 12.9 mph 81 % 0.0 in
15:12 4.6 °F 1.8 °F 1017.2 in North 4.8 mph 12.9 mph 82 % 0.0 in
15:17 4.6 °F 1.8 °F 1017.2 in NNE 4.8 mph 11.3 mph 82 % 0.0 in
15:22 4.5 °F 1.7 °F 1017.2 in ENE 1.6 mph 12.9 mph 82 % 0.0 in
15:27 4.4 °F 1.6 °F 1017.2 in NE 8.0 mph 12.9 mph 82 % 0.0 in
15:32 4.4 °F 1.9 °F 1016.8 in Calm   12.9 mph 84 % 0.0 in
15:37 4.3 °F 1.7 °F 1017.2 in North 4.8 mph 12.9 mph 83 % 0.0 in
15:42 4.3 °F 1.7 °F 1017.2 in NNE 4.8 mph 14.5 mph 83 % 0.0 in
15:47 4.4 °F 1.9 °F 1017.2 in NNW 4.8 mph 14.5 mph 84 % 0.0 in
15:52 4.3 °F 1.7 °F 1017.2 in NNW 8.0 mph 12.9 mph 83 % 0.0 in
15:57 4.3 °F 1.7 °F 1017.2 in North 9.7 mph 14.5 mph 83 % 0.0 in
16:02 4.2 °F 1.6 °F 1016.8 in NNW 8.0 mph 14.5 mph 83 % 0.0 in
16:07 4.3 °F 1.8 °F 1017.2 in North 4.8 mph 14.5 mph 84 % 0.0 in
16:17 4.2 °F 1.6 °F 1017.2 in NNE 3.2 mph 12.9 mph 83 % 0.0 in
16:22 4.3 °F 1.8 °F 1016.8 in NNW 4.8 mph 12.9 mph 84 % 0.0 in
16:27 4.4 °F 1.9 °F 1017.2 in NW 4.8 mph 12.9 mph 84 % 0.0 in
16:32 4.3 °F 1.7 °F 1016.8 in North 8.0 mph 12.9 mph 83 % 0.0 in
16:42 4.3 °F 1.8 °F 1017.2 in NNW 6.4 mph 12.9 mph 84 % 0.0 in
16:47 4.2 °F 1.6 °F 1017.2 in NNW 4.8 mph 12.9 mph 83 % 0.0 in
16:52 4.2 °F 1.7 °F 1017.2 in NW 8.0 mph 12.9 mph 84 % 0.0 in
16:57 4.1 °F 1.6 °F 1017.2 in North 6.4 mph 12.9 mph 84 % 0.0 in
17:02 4.1 °F 1.6 °F 1017.2 in NNW 3.2 mph 16.1 mph 84 % 0.0 in
17:07 3.9 °F 1.4 °F 1017.2 in WNW 8.0 mph 16.1 mph 84 % 0.0 in
17:12 3.9 °F 1.6 °F 1017.5 in NNE 12.9 mph 16.1 mph 85 % 0.0 in
17:17 3.8 °F 1.5 °F 1017.2 in NNW 3.2 mph 16.1 mph 85 % 0.0 in
17:22 3.8 °F 1.5 °F 1017.2 in North 4.8 mph 16.1 mph 85 % 0.0 in
17:27 3.7 °F 1.4 °F 1017.5 in North 6.4 mph 16.1 mph 85 % 0.0 in
17:32 3.6 °F 1.5 °F 1017.5 in North 4.8 mph 16.1 mph 86 % 0.0 in
17:37 3.6 °F 1.5 °F 1017.5 in North 6.4 mph 16.1 mph 86 % 0.0 in
17:42 3.4 °F 1.3 °F 1017.5 in NNW 6.4 mph 16.1 mph 86 % 0.0 in
17:52 3.3 °F 1.2 °F 1017.5 in NNE 9.7 mph 16.1 mph 86 % 0.0 in
17:57 3.2 °F 1.1 °F 1017.5 in NW 3.2 mph 16.1 mph 86 % 0.0 in
18:02 3.2 °F 1.2 °F 1017.5 in NNE 3.2 mph 14.5 mph 87 % 0.0 in
18:07 3.1 °F 1.1 °F 1017.5 in ENE 1.6 mph 12.9 mph 87 % 0.0 in
18:12 3.0 °F 1.0 °F 1017.5 in NNW 8.0 mph 12.9 mph 87 % 0.0 in
18:17 2.9 °F 1.0 °F 1017.5 in North 3.2 mph 12.9 mph 87 % 0.0 in
18:22 2.8 °F 1.0 °F 1017.8 in NNW 3.2 mph 12.9 mph 88 % 0.0 in
18:27 2.7 °F 0.9 °F 1017.8 in NNE 1.6 mph 11.3 mph 88 % 0.0 in
18:32 2.7 °F 1.1 °F 1017.8 in NNW 6.4 mph 11.3 mph 89 % 0.0 in
18:37 2.6 °F 1.0 °F 1017.8 in NW 4.8 mph 11.3 mph 89 % 0.0 in
18:42 2.6 °F 1.0 °F 1017.8 in NNW 4.8 mph 11.3 mph 89 % 0.0 in
18:47 2.6 °F 1.0 °F 1017.8 in North 4.8 mph 11.3 mph 89 % 0.0 in
18:52 2.6 °F 1.0 °F 1017.8 in NNW 8.0 mph 14.5 mph 89 % 0.0 in
18:57 2.6 °F 1.0 °F 1017.8 in NW 1.6 mph 14.5 mph 89 % 0.0 in
19:02 2.5 °F 0.9 °F 1017.8 in NNW 8.0 mph 14.5 mph 89 % 0.0 in
19:07 2.4 °F 0.8 °F 1017.8 in NNW 4.8 mph 14.5 mph 89 % 0.0 in
19:12 2.4 °F 0.8 °F 1017.8 in North 4.8 mph 14.5 mph 89 % 0.0 in
19:17 2.4 °F 0.8 °F 1017.8 in NNW 4.8 mph 11.3 mph 89 % 0.0 in
19:22 2.4 °F 0.8 °F 1017.8 in NNW 4.8 mph 11.3 mph 89 % 0.0 in
19:27 2.4 °F 0.9 °F 1017.8 in NW 1.6 mph 11.3 mph 90 % 0.0 in
19:32 2.4 °F 0.9 °F 1017.8 in NW 4.8 mph 11.3 mph 90 % 0.0 in
19:37 2.4 °F 0.9 °F 1017.8 in NNE 6.4 mph 11.3 mph 90 % 0.0 in
19:42 2.4 °F 0.9 °F 1017.8 in NW 4.8 mph 11.3 mph 90 % 0.0 in
19:52 2.3 °F 0.8 °F 1017.8 in NNW 3.2 mph 12.9 mph 90 % 0.0 in
19:57 2.2 °F 0.7 °F 1017.8 in NNE 6.4 mph 12.9 mph 90 % 0.0 in
20:02 2.2 °F 0.7 °F 1018.2 in NNW 3.2 mph 12.9 mph 90 % 0.0 in
20:07 2.1 °F 0.6 °F 1018.2 in NNW 3.2 mph 11.3 mph 90 % 0.0 in
20:12 2.1 °F 0.6 °F 1017.8 in North 4.8 mph 11.3 mph 90 % 0.0 in
20:17 2.0 °F 0.7 °F 1018.2 in NNW 6.4 mph 14.5 mph 91 % 0.0 in
20:22 1.9 °F 0.6 °F 1017.8 in NW 4.8 mph 14.5 mph 91 % 0.0 in
20:27 1.9 °F 0.6 °F 1018.2 in NW 4.8 mph 14.5 mph 91 % 0.0 in
20:37 1.7 °F 0.4 °F 1018.2 in NW 4.8 mph 11.3 mph 91 % 0.0 in
20:42 1.7 °F 0.4 °F 1018.2 in NNW 4.8 mph 8.0 mph 91 % 0.0 in
20:47 1.7 °F 0.4 °F 1017.8 in NW 3.2 mph 8.0 mph 91 % 0.0 in
20:57 1.5 °F 0.2 °F 1018.2 in North 3.2 mph 8.0 mph 91 % 0.0 in
21:02 1.4 °F 0.2 °F 1017.8 in NNW 1.6 mph 8.0 mph 92 % 0.0 in
21:12 1.4 °F 0.2 °F 1017.8 in NNW 1.6 mph 8.0 mph 92 % 0.0 in
21:17 1.4 °F 0.2 °F 1017.8 in NNW 3.2 mph 8.0 mph 92 % 0.0 in
21:22 1.4 °F 0.2 °F 1018.2 in NNW 3.2 mph 8.0 mph 92 % 0.0 in
21:32 1.5 °F 0.3 °F 1018.2 in NW 1.6 mph 12.9 mph 92 % 0.0 in
21:37 1.5 °F 0.3 °F 1017.8 in NNW 4.8 mph 12.9 mph 92 % 0.0 in
21:42 1.6 °F 0.4 °F 1018.2 in NW 8.0 mph 12.9 mph 92 % 0.0 in
21:47 1.6 °F 0.4 °F 1018.2 in NNW 6.4 mph 12.9 mph 92 % 0.0 in
21:57 1.6 °F 0.4 °F 1018.2 in NNW 8.0 mph 12.9 mph 92 % 0.0 in
22:02 1.6 °F 0.4 °F 1018.2 in North 9.7 mph 16.1 mph 92 % 0.0 in
22:07 1.7 °F 0.5 °F 1018.2 in NNW 9.7 mph 16.1 mph 92 % 0.0 in
22:12 1.7 °F 0.5 °F 1018.2 in North 8.0 mph 16.1 mph 92 % 0.0 in
22:17 1.6 °F 0.4 °F 1018.2 in NNW 8.0 mph 12.9 mph 92 % 0.0 in
22:22 1.6 °F 0.4 °F 1018.2 in North 9.7 mph 12.9 mph 92 % 0.0 in
22:32 1.6 °F 0.4 °F 1018.5 in North 4.8 mph 14.5 mph 92 % 0.0 in
22:37 1.6 °F 0.4 °F 1018.5 in NW 6.4 mph 14.5 mph 92 % 0.0 in
22:42 1.6 °F 0.4 °F 1018.5 in NW 8.0 mph 14.5 mph 92 % 0.0 in
22:47 1.6 °F 0.4 °F 1018.5 in NNW 6.4 mph 14.5 mph 92 % 0.0 in
22:52 1.6 °F 0.4 °F 1018.5 in NNW 4.8 mph 14.5 mph 92 % 0.0 in
22:57 1.6 °F 0.3 °F 1018.5 in NNE 8.0 mph 14.5 mph 91 % 0.0 in
23:02 1.6 °F 0.3 °F 1018.8 in NNW 3.2 mph 12.9 mph 91 % 0.0 in
23:07 1.6 °F 0.3 °F 1018.5 in NNW 4.8 mph 12.9 mph 91 % 0.0 in
23:12 1.6 °F 0.3 °F 1018.5 in NNE 4.8 mph 12.9 mph 91 % 0.0 in
23:17 1.6 °F 0.3 °F 1018.5 in NNW 8.0 mph 14.5 mph 91 % 0.0 in
23:22 1.6 °F 0.3 °F 1018.5 in NNW 3.2 mph 14.5 mph 91 % 0.0 in
23:32 1.6 °F 0.3 °F 1018.8 in NNE 6.4 mph 12.9 mph 91 % 0.0 in
23:42 1.6 °F 0.3 °F 1018.8 in NNE 6.4 mph 11.3 mph 91 % 0.0 in
23:47 1.6 °F 0.3 °F 1018.8 in North 4.8 mph 14.5 mph 91 % 0.0 in
23:52 1.6 °F 0.3 °F 1018.8 in NNE 4.8 mph 14.5 mph 91 % 0.0 in
23:57 1.6 °F 0.3 °F 1018.8 in NNW 6.4 mph 14.5 mph 91 % 0.0 in
Meteo18
Compliments of Weather Underground - 4 mb

Script developed by  Jim McMurry - jmcmurry@mwt.net Adapted for the template by  Wim van der Kuil - Leuven-Template.eu

You find our weather info also at:

European Weather Network

Weather Underground

Equipment we use:

Weather-station
Davis Vue

Weather-program
Meteobridge

Weather-server
Raspberry PI 2 B+

Provider
1 and 1

Davis Vue

Meteobridge

Raspberry PI 2 B+

1 and 1